sensor_id;sensor_type;location;lat;lon;timestamp;temperature;humidity
49319;DHT22;35818;44.498;0.166;2022-07-29T11:27:44;32.70;39.50
49319;DHT22;35818;44.498;0.166;2022-07-29T11:30:21;33.30;39.50
49319;DHT22;35818;44.498;0.166;2022-07-29T11:33:32;34.10;39.00
49319;DHT22;35818;44.498;0.166;2022-07-29T11:36:09;35.10;37.40
49319;DHT22;35818;44.498;0.166;2022-07-29T12:56:30;39.80;29.80
49319;DHT22;35818;44.498;0.166;2022-07-29T12:59:40;38.80;30.20
49319;DHT22;35818;44.498;0.166;2022-07-29T13:52:06;43.20;27.70
49319;DHT22;35818;44.498;0.166;2022-07-29T13:54:35;43.80;27.50
49319;DHT22;35818;44.498;0.166;2022-07-29T13:57:34;44.80;27.20
49319;DHT22;35818;44.498;0.166;2022-07-29T14:03:54;46.00;26.60
49319;DHT22;35818;44.498;0.166;2022-07-29T14:06:19;46.00;26.40
49319;DHT22;35818;44.498;0.166;2022-07-29T14:08:46;45.30;26.50
49319;DHT22;35818;44.498;0.166;2022-07-29T14:11:14;44.30;26.90
49319;DHT22;35818;44.498;0.166;2022-07-29T14:13:40;44.20;27.10
49319;DHT22;35818;44.498;0.166;2022-07-29T14:16:06;44.40;27.10
49319;DHT22;35818;44.498;0.166;2022-07-29T14:18:38;44.60;26.90
49319;DHT22;35818;44.498;0.166;2022-07-29T14:21:04;44.40;27.00
49319;DHT22;35818;44.498;0.166;2022-07-29T14:23:30;44.40;27.10
49319;DHT22;35818;44.498;0.166;2022-07-29T14:26:04;44.20;27.20
49319;DHT22;35818;44.498;0.166;2022-07-29T14:28:30;43.70;27.40
49319;DHT22;35818;44.498;0.166;2022-07-29T14:30:55;43.20;27.50
49319;DHT22;35818;44.498;0.166;2022-07-29T14:33:21;42.90;27.80
49319;DHT22;35818;44.498;0.166;2022-07-29T14:35:47;43.10;27.90
49319;DHT22;35818;44.498;0.166;2022-07-29T14:38:13;43.50;27.70
49319;DHT22;35818;44.498;0.166;2022-07-29T14:40:41;44.30;27.30
49319;DHT22;35818;44.498;0.166;2022-07-29T14:43:07;44.70;26.80
49319;DHT22;35818;44.498;0.166;2022-07-29T14:45:32;45.00;27.10
49319;DHT22;35818;44.498;0.166;2022-07-29T14:51:04;44.60;26.60
49319;DHT22;35818;44.498;0.166;2022-07-29T14:53:33;44.70;26.80
49319;DHT22;35818;44.498;0.166;2022-07-29T14:56:06;45.00;26.80
49319;DHT22;35818;44.498;0.166;2022-07-29T14:58:31;45.70;26.60
49319;DHT22;35818;44.498;0.166;2022-07-29T15:00:57;46.20;26.30
49319;DHT22;35818;44.498;0.166;2022-07-29T15:03:23;46.50;26.30
49319;DHT22;35818;44.498;0.166;2022-07-29T15:05:49;46.80;26.20
49319;DHT22;35818;44.498;0.166;2022-07-29T15:08:14;46.20;26.30
49319;DHT22;35818;44.498;0.166;2022-07-29T15:10:40;45.20;26.80
49319;DHT22;35818;44.498;0.166;2022-07-29T15:13:06;44.60;27.10
49319;DHT22;35818;44.498;0.166;2022-07-29T15:15:32;44.40;27.20
49319;DHT22;35818;44.498;0.166;2022-07-29T15:17:57;44.30;27.30
49319;DHT22;35818;44.498;0.166;2022-07-29T15:20:23;43.90;27.60
49319;DHT22;35818;44.498;0.166;2022-07-29T15:22:51;43.80;27.80
49319;DHT22;35818;44.498;0.166;2022-07-29T15:25:16;43.50;28.00
49319;DHT22;35818;44.498;0.166;2022-07-29T15:27:43;43.20;28.10
49319;DHT22;35818;44.498;0.166;2022-07-29T15:30:50;43.00;28.10
49319;DHT22;35818;44.498;0.166;2022-07-29T15:33:33;43.30;28.00
49319;DHT22;35818;44.498;0.166;2022-07-29T15:35:59;43.80;27.90
49319;DHT22;35818;44.498;0.166;2022-07-29T15:38:25;44.30;27.50
49319;DHT22;35818;44.498;0.166;2022-07-29T15:40:52;44.30;27.30
49319;DHT22;35818;44.498;0.166;2022-07-29T15:43:21;44.10;27.40
49319;DHT22;35818;44.498;0.166;2022-07-29T15:45:47;43.90;27.80
49319;DHT22;35818;44.498;0.166;2022-07-29T15:48:33;43.70;27.70
49319;DHT22;35818;44.498;0.166;2022-07-29T15:51:04;43.30;27.90
49319;DHT22;35818;44.498;0.166;2022-07-29T15:53:30;43.40;28.00
49319;DHT22;35818;44.498;0.166;2022-07-29T15:55:56;43.30;28.00
49319;DHT22;35818;44.498;0.166;2022-07-29T15:58:22;43.10;28.00
49319;DHT22;35818;44.498;0.166;2022-07-29T16:00:54;42.80;28.20
49319;DHT22;35818;44.498;0.166;2022-07-29T16:03:20;42.80;28.30
49319;DHT22;35818;44.498;0.166;2022-07-29T16:05:47;42.80;28.30
49319;DHT22;35818;44.498;0.166;2022-07-29T16:08:13;42.80;28.30
49319;DHT22;35818;44.498;0.166;2022-07-29T16:10:39;42.80;28.30
49319;DHT22;35818;44.498;0.166;2022-07-29T16:13:05;42.90;28.30
49319;DHT22;35818;44.498;0.166;2022-07-29T16:15:34;43.10;28.40
49319;DHT22;35818;44.498;0.166;2022-07-29T16:19:18;42.90;28.70
49319;DHT22;35818;44.498;0.166;2022-07-29T16:21:45;42.40;28.90
49319;DHT22;35818;44.498;0.166;2022-07-29T16:24:11;42.20;29.10
49319;DHT22;35818;44.498;0.166;2022-07-29T16:26:37;41.60;29.60
49319;DHT22;35818;44.498;0.166;2022-07-29T16:29:05;41.20;29.90
49319;DHT22;35818;44.498;0.166;2022-07-29T16:31:31;41.20;30.00
49319;DHT22;35818;44.498;0.166;2022-07-29T16:33:57;41.20;30.00
49319;DHT22;35818;44.498;0.166;2022-07-29T16:36:22;41.00;30.00
49319;DHT22;35818;44.498;0.166;2022-07-29T16:38:48;40.80;30.10
49319;DHT22;35818;44.498;0.166;2022-07-29T16:41:27;40.60;30.30
49319;DHT22;35818;44.498;0.166;2022-07-29T16:57:34;37.90;33.00
49319;DHT22;35818;44.498;0.166;2022-07-29T17:33:32;38.30;32.90
49319;DHT22;35818;44.498;0.166;2022-07-29T17:36:14;37.80;33.30
49319;DHT22;35818;44.498;0.166;2022-07-29T17:39:15;37.20;33.90
49319;DHT22;35818;44.498;0.166;2022-07-29T17:41:41;36.70;34.40
49319;DHT22;35818;44.498;0.166;2022-07-29T17:44:18;36.60;34.70
49319;DHT22;35818;44.498;0.166;2022-07-29T17:46:52;36.40;34.90
49319;DHT22;35818;44.498;0.166;2022-07-29T17:49:18;36.30;35.00
49319;DHT22;35818;44.498;0.166;2022-07-29T17:51:49;36.10;35.20
49319;DHT22;35818;44.498;0.166;2022-07-29T17:54:43;35.80;35.40
49319;DHT22;35818;44.498;0.166;2022-07-29T17:57:09;35.50;35.90
49319;DHT22;35818;44.498;0.166;2022-07-29T18:12:32;33.90;38.40
49319;DHT22;35818;44.498;0.166;2022-07-29T18:14:57;33.60;38.80
49319;DHT22;35818;44.498;0.166;2022-07-29T18:17:23;33.30;39.20
49319;DHT22;35818;44.498;0.166;2022-07-29T18:19:49;33.10;39.60
49319;DHT22;35818;44.498;0.166;2022-07-29T18:22:34;32.70;40.00
49319;DHT22;35818;44.498;0.166;2022-07-29T18:25:00;32.50;40.30
49319;DHT22;35818;44.498;0.166;2022-07-29T18:27:26;32.30;40.60
49319;DHT22;35818;44.498;0.166;2022-07-29T18:29:52;32.00;41.10
49319;DHT22;35818;44.498;0.166;2022-07-29T18:32:50;31.60;41.50
49319;DHT22;35818;44.498;0.166;2022-07-29T18:35:17;31.40;42.10
49319;DHT22;35818;44.498;0.166;2022-07-29T18:37:43;31.20;42.50
49319;DHT22;35818;44.498;0.166;2022-07-29T18:40:10;30.90;43.00
49319;DHT22;35818;44.498;0.166;2022-07-29T18:42:38;30.50;43.60
49319;DHT22;35818;44.498;0.166;2022-07-29T18:45:27;30.10;44.30
49319;DHT22;35818;44.498;0.166;2022-07-29T19:39:28;26.00;55.10
49319;DHT22;35818;44.498;0.166;2022-07-29T19:42:55;25.90;55.50
